Time;durP1;ratioP1;P1;durP2;ratioP2;P2;SDS_P1;SDS_P2;PMS_P1;PMS_P2;Temp;Humidity;BMP_temperature;BMP_pressure;BME280_temperature;BME280_humidity;BME280_pressure;Samples;Min_cycle;Max_cycle;Signal;HPM_P1;HPM_P2
2022/11/28 00:03:01;;;;;;;;;;;;;;;;;;10418040;28;19956;-66
2022/11/28 00:08:03;;;;;;;;;;;;;;;;;;10417241;28;20427;-66
2022/11/28 00:13:05;;;;;;;;;;;;;;;;;;10416578;28;19925;-66
2022/11/28 00:18:09;;;;;;;;;;;;;;;;;;10417125;28;19925;-66
2022/11/28 00:23:11;;;;;;;;;;;;;;;;;;10417340;28;20015;-66
2022/11/28 00:28:13;;;;;;;;;;;;;;;;;;10416690;28;19925;-66
2022/11/28 00:33:15;;;;;;;;;;;;;;;;;;10448122;28;19925;-66
2022/11/28 00:38:17;;;;;;;;;;;;;;;;;;10416196;28;19925;-67
2022/11/28 00:43:19;;;;;;;;;;;;;;;;;;10416098;28;20395;-66
2022/11/28 00:48:21;;;;;;;;;;;;;;;;;;10415421;28;19983;-67
2022/11/28 00:53:23;;;;;;;;;;;;;;;;;;10415649;28;19971;-67
2022/11/28 00:58:26;;;;;;;;;;;;;;;;;;10415802;28;19925;-66
2022/11/28 01:03:28;;;;;;;;;;;;;;;;;;10415645;28;19925;-67
2022/11/28 01:08:30;;;;;;;;;;;;;;;;;;10416122;28;19925;-67
2022/11/28 01:13:32;;;;;;;;;;;;;;;;;;10415475;28;19936;-66
2022/11/28 01:18:34;;;;;;;;;;;;;;;;;;10414361;28;19925;-66
2022/11/28 01:23:36;;;;;;;;;;;;;;;;;;10415067;28;19929;-67
2022/11/28 01:28:38;;;;;;;;;;;;;;;;;;10415920;28;19964;-67
2022/11/28 01:33:40;;;;;;;;;;;;;;;;;;10415452;28;19933;-67
2022/11/28 01:38:42;;;;;;;;;;;;;;;;;;10414913;28;20442;-67
2022/11/28 01:43:44;;;;;;;;;;;;;;;;;;10414646;28;20304;-67
2022/11/28 01:48:46;;;;;;;;;;;;;;;;;;10446547;28;19979;-67
2022/11/28 01:53:48;;;;;;;;;;;;;;;;;;10413922;28;19979;-67
2022/11/28 01:58:50;;;;;;;;;;;;;;;;;;10415140;28;19925;-67
2022/11/28 02:03:52;;;;;;;;;;;;;;;;;;10421083;28;20446;-66
2022/11/28 02:08:54;;;;;;;;;;;;;;;;;;10421977;28;19928;-67
2022/11/28 02:13:57;;;;;;;;;;;;;;;;;;10420951;28;20345;-66
2022/11/28 02:18:59;;;;;;;;;;;;;;;;;;10421071;28;19925;-66
2022/11/28 02:24:01;;;;;;;;;;;;;;;;;;10421337;28;20261;-67
2022/11/28 02:29:03;;;;;;;;;;;;;;;;;;10453748;28;19929;-67
2022/11/28 02:34:05;;;;;;;;;;;;;;;;;;10421023;28;19925;-67
2022/11/28 02:39:07;;;;;;;;;;;;;;;;;;10452733;28;20355;-67
2022/11/28 02:44:09;;;;;;;;;;;;;;;;;;10420486;28;19958;-67
2022/11/28 02:49:11;;;;;;;;;;;;;;;;;;10420309;28;20331;-67
2022/11/28 02:54:13;;;;;;;;;;;;;;;;;;10420183;28;19929;-66
2022/11/28 02:59:15;;;;;;;;;;;;;;;;;;10419644;28;20446;-66
2022/11/28 03:04:17;;;;;;;;;;;;;;;;;;10420436;28;19932;-67
2022/11/28 03:09:19;;;;;;;;;;;;;;;;;;10420835;28;20414;-67
2022/11/28 03:14:21;;;;;;;;;;;;;;;;;;10418946;28;19940;-67
2022/11/28 03:19:24;;;;;;;;;;;;;;;;;;10418306;28;19936;-68
2022/11/28 03:24:26;;;;;;;;;;;;;;;;;;10419054;28;20356;-67
2022/11/28 03:29:28;;;;;;;;;;;;;;;;;;10418882;28;19925;-67
2022/11/28 03:34:30;;;;;;;;;;;;;;;;;;10418032;28;20369;-67
2022/11/28 03:39:32;;;;;;;;;;;;;;;;;;10419037;28;19925;-67
2022/11/28 03:44:34;;;;;;;;;;;;;;;;;;10417726;28;19936;-67
2022/11/28 03:49:36;;;;;;;;;;;;;;;;;;10418137;28;19928;-67
2022/11/28 03:54:38;;;;;;;;;;;;;;;;;;10418372;28;19925;-67
2022/11/28 03:59:40;;;;;;;;;;;;;;;;;;10417135;28;19926;-67
2022/11/28 04:04:42;;;;;;;;;;;;;;;;;;10417468;28;19929;-66
2022/11/28 04:09:45;;;;;;;;;;;;;;;;;;10417161;28;19935;-66
2022/11/28 04:14:47;;;;;;;;;;;;;;;;;;10417602;28;19929;-66
2022/11/28 04:19:49;;;;;;;;;;;;;;;;;;10416713;28;20332;-66
2022/11/28 04:24:51;;;;;;;;;;;;;;;;;;10415421;28;19995;-66
2022/11/28 04:29:53;;;;;;;;;;;;;;;;;;10417197;28;19925;-66
2022/11/28 04:34:55;;;;;;;;;;;;;;;;;;10446836;28;19929;-66
2022/11/28 04:39:57;;;;;;;;;;;;;;;;;;10416878;28;19925;-66
2022/11/28 04:44:59;;;;;;;;;;;;;;;;;;10416102;28;20303;-66
2022/11/28 04:50:01;;;;;;;;;;;;;;;;;;10416190;28;19925;-66
2022/11/28 04:55:03;;;;;;;;;;;;;;;;;;10415739;28;20377;-66
2022/11/28 05:00:05;;;;;;;;;;;;;;;;;;10416331;28;19925;-66
2022/11/28 05:05:07;;;;;;;;;;;;;;;;;;10415470;28;19925;-66
2022/11/28 05:10:10;;;;;;;;;;;;;;;;;;10415557;28;19925;-66
2022/11/28 05:15:12;;;;;;;;;;;;;;;;;;10415329;28;20396;-67
2022/11/28 05:20:14;;;;;;;;;;;;;;;;;;10415461;28;19936;-66
2022/11/28 05:25:16;;;;;;;;;;;;;;;;;;10415478;28;19978;-66
2022/11/28 05:30:18;;;;;;;;;;;;;;;;;;10414387;28;20265;-66
2022/11/28 05:35:20;;;;;;;;;;;;;;;;;;10418520;28;19929;-66
2022/11/28 05:40:23;;;;;;;;;;;;;;;;;;10423024;28;20372;-66
2022/11/28 05:45:25;;;;;;;;;;;;;;;;;;10422288;28;19932;-66
2022/11/28 05:50:27;;;;;;;;;;;;;;;;;;10422687;28;19925;-66
2022/11/28 05:55:29;;;;;;;;;;;;;;;;;;10421884;28;19971;-66
2022/11/28 06:00:31;;;;;;;;;;;;;;;;;;10421927;28;19925;-66
2022/11/28 06:05:33;;;;;;;;;;;;;;;;;;10421415;28;19932;-67
2022/11/28 06:10:43;;;;;;;;;;;;;;;;;;10420393;28;20471;-66
2022/11/28 06:15:46;;;;;;;;;;;;;;;;;;10421385;28;19929;-66
2022/11/28 06:20:48;;;;;;;;;;;;;;;;;;10420878;28;20372;-66
2022/11/28 06:25:50;;;;;;;;;;;;;;;;;;10421955;28;19925;-67
2022/11/28 06:30:52;;;;;;;;;;;;;;;;;;10421192;28;20372;-66
2022/11/28 06:35:54;;;;;;;;;;;;;;;;;;10421586;28;19925;-67
2022/11/28 06:40:56;;;;;;;;;;;;;;;;;;10421441;28;19925;-66
2022/11/28 06:45:58;;;;;;;;;;;;;;;;;;10420418;28;19932;-66
2022/11/28 06:51:00;;;;;;;;;;;;;;;;;;10421074;28;19932;-66
2022/11/28 06:56:03;;;;;;;;;;;;;;;;;;10420812;28;19971;-66
2022/11/28 07:01:05;;;;;;;;;;;;;;;;;;10420014;28;20332;-66
2022/11/28 07:06:07;;;;;;;;;;;;;;;;;;10420483;28;19925;-66
2022/11/28 07:11:09;;;;;;;;;;;;;;;;;;10420276;28;19933;-66
2022/11/28 07:16:11;;;;;;;;;;;;;;;;;;10420038;28;19925;-66
2022/11/28 07:21:13;;;;;;;;;;;;;;;;;;10418989;28;19925;-67
2022/11/28 07:26:15;;;;;;;;;;;;;;;;;;10419678;28;19975;-66
2022/11/28 07:31:17;;;;;;;;;;;;;;;;;;10419466;28;19924;-66
2022/11/28 07:36:20;;;;;;;;;;;;;;;;;;10433389;22;19925;-68
2022/11/28 07:41:22;;;;;;;;;;;;;;;;;;10418564;28;19952;-68
2022/11/28 07:46:27;;;;;;;;;;;;;;;;;;10418984;28;19929;-68
2022/11/28 07:51:29;;;;;;;;;;;;;;;;;;10418782;28;19925;-68
2022/11/28 07:56:31;;;;;;;;;;;;;;;;;;10417861;28;20065;-68
2022/11/28 08:01:53;;;;;;;;;;;;;;;;;;10418322;28;20015;-68
2022/11/28 08:06:55;;;;;;;;;;;;;;;;;;10417527;28;19925;-68
2022/11/28 08:11:57;;;;;;;;;;;;;;;;;;10417981;28;19936;-68
2022/11/28 08:16:59;;;;;;;;;;;;;;;;;;10417148;28;19974;-68
2022/11/28 08:22:02;;;;;;;;;;;;;;;;;;10417614;28;19925;-68
2022/11/28 08:27:04;;;;;;;;;;;;;;;;;;10417476;28;19925;-68
2022/11/28 08:32:06;;;;;;;;;;;;;;;;;;10416485;28;20441;-68
2022/11/28 08:37:08;;;;;;;;;;;;;;;;;;10416428;28;19955;-68
2022/11/28 08:42:10;;;;;;;;;;;;;;;;;;10416347;28;20394;-68
2022/11/28 08:47:12;;;;;;;;;;;;;;;;;;10416831;28;19925;-68
2022/11/28 08:52:14;;;;;;;;;;;;;;;;;;10416069;28;19925;-68
2022/11/28 08:57:16;;;;;;;;;;;;;;;;;;10415844;28;20315;-68
2022/11/28 09:02:18;;;;;;;;;;;;;;;;;;10416419;28;19936;-68
2022/11/28 09:07:25;;;;;;;;;;;;;;;;;;10416380;28;20020;-69
2022/11/28 09:12:27;;;;;;;;;;;;;;;;;;10415831;28;19971;-68
2022/11/28 09:17:29;;;;;;;;;;;;;;;;;;10416071;28;19925;-68
2022/11/28 09:22:31;;;;;;;;;;;;;;;;;;10415408;28;20422;-68
2022/11/28 09:27:33;;;;;;;;;;;;;;;;;;10415949;28;19925;-68
2022/11/28 09:32:35;;;;;;;;;;;;;;;;;;10415107;28;20314;-68
2022/11/28 09:37:38;;;;;;;;;;;;;;;;;;10415697;28;19944;-68
2022/11/28 09:42:43;;;;;;;;;;;;;;;;;;10415840;28;19979;-68
2022/11/28 09:47:45;;;;;;;;;;;;;;;;;;10414914;28;19994;-69
2022/11/28 09:52:47;;;;;;;;;;;;;;;;;;10414867;28;19937;-68
2022/11/28 09:57:49;;;;;;;;;;;;;;;;;;10415338;28;19924;-69
2022/11/28 10:02:54;;;;;;;;;;;;;;;;;;10414668;28;20338;-68
2022/11/28 10:07:56;;;;;;;;;;;;;;;;;;10414603;28;19933;-68
2022/11/28 10:12:59;;;;;;;;;;;;;;;;;;10415090;28;19925;-68
2022/11/28 10:18:01;;;;;;;;;;;;;;;;;;10414298;28;20288;-68
2022/11/28 10:23:03;;;;;;;;;;;;;;;;;;10417888;28;19925;-68
2022/11/28 10:28:05;;;;;;;;;;;;;;;;;;10421473;28;19929;-68
2022/11/28 10:33:07;;;;;;;;;;;;;;;;;;10421094;28;20364;-68
2022/11/28 10:38:10;;;;;;;;;;;;;;;;;;10420998;28;19925;-68
2022/11/28 10:43:12;;;;;;;;;;;;;;;;;;10420881;28;19925;-68
2022/11/28 10:48:14;;;;;;;;;;;;;;;;;;10421335;28;19925;-68
2022/11/28 10:53:36;;;;;;;;;;;;;;;;;;10421149;28;20007;-69
2022/11/28 10:58:38;;;;;;;;;;;;;;;;;;10420853;28;19929;-68
2022/11/28 11:03:40;;;;;;;;;;;;;;;;;;10420071;28;20288;-68
2022/11/28 11:08:42;;;;;;;;;;;;;;;;;;10420509;28;19979;-69
2022/11/28 11:13:44;;;;;;;;;;;;;;;;;;10420336;28;19933;-68
2022/11/28 11:18:46;;;;;;;;;;;;;;;;;;10420113;28;19925;-68
2022/11/28 11:23:48;;;;;;;;;;;;;;;;;;10419384;28;20264;-68
2022/11/28 11:28:51;;;;;;;;;;;;;;;;;;10419827;28;19925;-68
2022/11/28 11:33:53;;;;;;;;;;;;;;;;;;10418496;28;19991;-69
2022/11/28 11:38:55;;;;;;;;;;;;;;;;;;10418722;28;19934;-69
2022/11/28 11:43:57;;;;;;;;;;;;;;;;;;10418550;28;20334;-69
2022/11/28 11:48:59;;;;;;;;;;;;;;;;;;10418963;28;19929;-68
2022/11/28 11:54:01;;;;;;;;;;;;;;;;;;10418746;28;19925;-68
2022/11/28 11:59:03;;;;;;;;;;;;;;;;;;10417891;28;19925;-68
2022/11/28 12:04:06;;;;;;;;;;;;;;;;;;10417797;28;19933;-68
2022/11/28 12:09:24;;;;;;;;;;;;;;;;;;10418165;28;19925;-69
2022/11/28 12:14:27;;;;;;;;;;;;;;;;;;10417957;28;19925;-69
2022/11/28 12:19:29;;;;;;;;;;;;;;;;;;10417699;28;19956;-68
2022/11/28 12:24:31;;;;;;;;;;;;;;;;;;10417616;28;19971;-68
2022/11/28 12:29:33;;;;;;;;;;;;;;;;;;10417577;28;19975;-68
2022/11/28 12:34:35;;;;;;;;;;;;;;;;;;10416763;28;19929;-68
2022/11/28 12:39:37;;;;;;;;;;;;;;;;;;10417044;28;19929;-69
2022/11/28 12:44:39;;;;;;;;;;;;;;;;;;10416302;28;19933;-69
2022/11/28 12:49:41;;;;;;;;;;;;;;;;;;10416170;28;19929;-69
2022/11/28 12:54:43;;;;;;;;;;;;;;;;;;10416010;28;20023;-69
2022/11/28 12:59:45;;;;;;;;;;;;;;;;;;10416446;28;19975;-69
2022/11/28 13:04:49;;;;;;;;;;;;;;;;;;10415770;28;19925;-68
2022/11/28 13:09:51;;;;;;;;;;;;;;;;;;10416326;28;19925;-69
2022/11/28 13:14:53;;;;;;;;;;;;;;;;;;10415600;28;19929;-69
2022/11/28 13:19:55;;;;;;;;;;;;;;;;;;10415452;28;20386;-68
2022/11/28 13:24:59;;;;;;;;;;;;;;;;;;10416032;28;19976;-69
2022/11/28 13:30:01;;;;;;;;;;;;;;;;;;10415902;28;19980;-69
2022/11/28 13:35:03;;;;;;;;;;;;;;;;;;10414999;28;20372;-69
2022/11/28 13:40:05;;;;;;;;;;;;;;;;;;10415683;28;20044;-68
2022/11/28 13:45:07;;;;;;;;;;;;;;;;;;10415635;28;19925;-69
2022/11/28 13:50:09;;;;;;;;;;;;;;;;;;10414909;28;20387;-69
2022/11/28 13:55:12;;;;;;;;;;;;;;;;;;10416466;28;19925;-69
2022/11/28 14:00:14;;;;;;;;;;;;;;;;;;10422591;28;19925;-69
2022/11/28 14:05:16;;;;;;;;;;;;;;;;;;10423025;28;19925;-69
2022/11/28 14:10:23;;;;;;;;;;;;;;;;;;10422847;28;19932;-69
2022/11/28 14:15:26;;;;;;;;;;;;;;;;;;10421897;28;19932;-69
2022/11/28 14:20:28;;;;;;;;;;;;;;;;;;10421839;28;19975;-69
2022/11/28 14:25:30;;;;;;;;;;;;;;;;;;10422204;28;19929;-69
2022/11/28 14:30:32;;;;;;;;;;;;;;;;;;10422078;28;19929;-69
2022/11/28 14:35:34;;;;;;;;;;;;;;;;;;10420805;28;20331;-69
2022/11/28 14:40:36;;;;;;;;;;;;;;;;;;10421652;28;19925;-69
2022/11/28 14:45:38;;;;;;;;;;;;;;;;;;10421447;28;19979;-69
2022/11/28 14:50:41;;;;;;;;;;;;;;;;;;10420696;28;19925;-69
2022/11/28 14:55:43;;;;;;;;;;;;;;;;;;10420968;28;19975;-69
2022/11/28 15:00:46;;;;;;;;;;;;;;;;;;10420318;28;20333;-69
2022/11/28 15:05:48;;;;;;;;;;;;;;;;;;10420098;28;19929;-69
2022/11/28 15:10:50;;;;;;;;;;;;;;;;;;10435191;28;19929;-69
2022/11/28 15:15:52;;;;;;;;;;;;;;;;;;10419613;28;20421;-69
2022/11/28 15:20:54;;;;;;;;;;;;;;;;;;10419654;28;19969;-69
2022/11/28 15:25:57;;;;;;;;;;;;;;;;;;10419911;28;19926;-69
2022/11/28 15:30:59;;;;;;;;;;;;;;;;;;10419100;28;20364;-69
2022/11/28 15:36:01;;;;;;;;;;;;;;;;;;10418614;28;20292;-69
2022/11/28 15:41:03;;;;;;;;;;;;;;;;;;10418682;28;19971;-69
2022/11/28 15:46:06;;;;;;;;;;;;;;;;;;10418464;28;19932;-69
2022/11/28 15:51:08;;;;;;;;;;;;;;;;;;10418948;28;19925;-69
2022/11/28 15:56:11;;;;;;;;;;;;;;;;;;10418637;28;19925;-69
2022/11/28 16:01:13;;;;;;;;;;;;;;;;;;10417902;28;19925;-69
2022/11/28 16:06:15;;;;;;;;;;;;;;;;;;10417616;28;20391;-69
2022/11/28 16:11:18;;;;;;;;;;;;;;;;;;10418152;28;19979;-69
2022/11/28 16:16:20;;;;;;;;;;;;;;;;;;10417216;28;19929;-69
2022/11/28 16:21:22;;;;;;;;;;;;;;;;;;10416969;28;19932;-68
2022/11/28 16:26:25;;;;;;;;;;;;;;;;;;10416929;28;19932;-69
2022/11/28 16:31:27;;;;;;;;;;;;;;;;;;10416958;28;19947;-69
2022/11/28 16:36:34;;;;;;;;;;;;;;;;;;10416589;28;19925;-68
2022/11/28 16:41:36;;;;;;;;;;;;;;;;;;10416347;28;20319;-69
2022/11/28 16:46:38;;;;;;;;;;;;;;;;;;10416866;28;19925;-69
2022/11/28 16:51:40;;;;;;;;;;;;;;;;;;10431502;28;19929;-69
2022/11/28 16:56:43;;;;;;;;;;;;;;;;;;10416630;28;19925;-68
2022/11/28 17:01:45;;;;;;;;;;;;;;;;;;10416584;28;19971;-69
2022/11/28 17:06:47;;;;;;;;;;;;;;;;;;10416402;28;19925;-69
2022/11/28 17:11:49;;;;;;;;;;;;;;;;;;10415687;28;20371;-69
2022/11/28 17:16:51;;;;;;;;;;;;;;;;;;10415426;28;19925;-69
2022/11/28 17:21:53;;;;;;;;;;;;;;;;;;10416126;28;19971;-69
2022/11/28 17:26:55;;;;;;;;;;;;;;;;;;10430721;28;19925;-69
2022/11/28 17:31:58;;;;;;;;;;;;;;;;;;10419367;28;19979;-69
2022/11/28 17:37:00;;;;;;;;;;;;;;;;;;10423322;28;19929;-69
2022/11/28 17:42:02;;;;;;;;;;;;;;;;;;10423947;28;19929;-68
2022/11/28 17:47:04;;;;;;;;;;;;;;;;;;10432484;28;20372;-69
2022/11/28 17:52:06;;;;;;;;;;;;;;;;;;10422782;28;19925;-69
2022/11/28 17:57:08;;;;;;;;;;;;;;;;;;10422639;28;19932;-69
2022/11/28 18:02:10;;;;;;;;;;;;;;;;;;10421503;28;19933;-69
2022/11/28 18:07:12;;;;;;;;;;;;;;;;;;10422917;28;19967;-69
2022/11/28 18:12:15;;;;;;;;;;;;;;;;;;10429099;28;20015;-68
2022/11/28 18:17:17;;;;;;;;;;;;;;;;;;10438152;28;19925;-69
2022/11/28 18:22:19;;;;;;;;;;;;;;;;;;10421747;28;20339;-69
2022/11/28 18:27:21;;;;;;;;;;;;;;;;;;10422082;28;19936;-69
2022/11/28 18:32:23;;;;;;;;;;;;;;;;;;10420601;28;20429;-69
2022/11/28 18:37:25;;;;;;;;;;;;;;;;;;10421050;28;19940;-69
2022/11/28 18:42:27;;;;;;;;;;;;;;;;;;10418844;28;19925;-69
2022/11/28 18:47:29;;;;;;;;;;;;;;;;;;10420834;28;19925;-69
2022/11/28 18:52:31;;;;;;;;;;;;;;;;;;10422948;28;19971;-69
2022/11/28 18:57:33;;;;;;;;;;;;;;;;;;10428805;28;20304;-69
2022/11/28 19:02:36;;;;;;;;;;;;;;;;;;10462072;28;19925;-69
2022/11/28 19:07:38;;;;;;;;;;;;;;;;;;10461148;28;20382;-69
2022/11/28 19:12:40;;;;;;;;;;;;;;;;;;10444921;28;19933;-69
2022/11/28 19:17:42;;;;;;;;;;;;;;;;;;10418524;28;19925;-69
2022/11/28 19:22:44;;;;;;;;;;;;;;;;;;10435442;28;19924;-69
2022/11/28 19:27:46;;;;;;;;;;;;;;;;;;10418463;28;20265;-69
2022/11/28 19:32:48;;;;;;;;;;;;;;;;;;10435864;28;19925;-68
2022/11/28 19:37:50;;;;;;;;;;;;;;;;;;10460771;28;19975;-69
2022/11/28 19:42:52;;;;;;;;;;;;;;;;;;10446658;28;19933;-69
2022/11/28 19:47:55;;;;;;;;;;;;;;;;;;10433329;22;20280;-67
2022/11/28 19:52:57;;;;;;;;;;;;;;;;;;10417776;28;19925;-68
2022/11/28 19:57:59;;;;;;;;;;;;;;;;;;10417224;28;19929;-67
2022/11/28 20:03:03;;;;;;;;;;;;;;;;;;10417791;28;20152;-68
2022/11/28 20:08:05;;;;;;;;;;;;;;;;;;10418305;28;19929;-68
2022/11/28 20:13:07;;;;;;;;;;;;;;;;;;10417274;28;19960;-68
2022/11/28 20:18:10;;;;;;;;;;;;;;;;;;10417901;28;19925;-68
2022/11/28 20:23:12;;;;;;;;;;;;;;;;;;10417592;28;19925;-68
2022/11/28 20:28:14;;;;;;;;;;;;;;;;;;10415878;28;20375;-67
2022/11/28 20:33:16;;;;;;;;;;;;;;;;;;10415709;28;19932;-68
2022/11/28 20:38:18;;;;;;;;;;;;;;;;;;10417154;28;19929;-67
2022/11/28 20:43:20;;;;;;;;;;;;;;;;;;10417060;28;19932;-68
2022/11/28 20:48:22;;;;;;;;;;;;;;;;;;10415103;28;20334;-67
2022/11/28 20:53:24;;;;;;;;;;;;;;;;;;10416754;28;19926;-68
2022/11/28 20:58:28;;;;;;;;;;;;;;;;;;10444178;28;19935;-68
2022/11/28 21:03:30;;;;;;;;;;;;;;;;;;10417792;28;20334;-68
2022/11/28 21:08:32;;;;;;;;;;;;;;;;;;10437208;28;19925;-68
2022/11/28 21:13:34;;;;;;;;;;;;;;;;;;10440876;28;20380;-68
2022/11/28 21:18:36;;;;;;;;;;;;;;;;;;10414775;28;19933;-68
2022/11/28 21:23:39;;;;;;;;;;;;;;;;;;10413432;28;20375;-68
2022/11/28 21:28:41;;;;;;;;;;;;;;;;;;10411165;28;20335;-69
2022/11/28 21:33:43;;;;;;;;;;;;;;;;;;10422593;28;19925;-68
2022/11/28 21:38:45;;;;;;;;;;;;;;;;;;10415619;28;19932;-67
2022/11/28 21:43:47;;;;;;;;;;;;;;;;;;10415158;28;19925;-68
2022/11/28 21:48:49;;;;;;;;;;;;;;;;;;10425609;28;19929;-67
2022/11/28 21:53:51;;;;;;;;;;;;;;;;;;10455489;28;19924;-68
2022/11/28 21:58:53;;;;;;;;;;;;;;;;;;10445908;28;19927;-67
2022/11/28 22:03:55;;;;;;;;;;;;;;;;;;10445653;28;19932;-68
2022/11/28 22:09:03;;;;;;;;;;;;;;;;;;10456630;28;19925;-67
2022/11/28 22:14:10;;;;;;;;;;;;;;;;;;10453984;28;19932;-68
2022/11/28 22:19:12;;;;;;;;;;;;;;;;;;10461054;28;20379;-68
2022/11/28 22:24:14;;;;;;;;;;;;;;;;;;10460261;28;20398;-68
2022/11/28 22:29:16;;;;;;;;;;;;;;;;;;10461165;28;19932;-68
2022/11/28 22:34:18;;;;;;;;;;;;;;;;;;10462615;28;20376;-68
2022/11/28 22:39:20;;;;;;;;;;;;;;;;;;10462288;28;19932;-68
2022/11/28 22:44:22;;;;;;;;;;;;;;;;;;10444917;28;20314;-68
2022/11/28 22:49:24;;;;;;;;;;;;;;;;;;10432384;28;19978;-68
2022/11/28 22:54:26;;;;;;;;;;;;;;;;;;10462443;28;19932;-68
2022/11/28 22:59:32;;;;;;;;;;;;;;;;;;10460321;28;20323;-68
2022/11/28 23:04:34;;;;;;;;;;;;;;;;;;10436328;28;19932;-68
2022/11/28 23:09:36;;;;;;;;;;;;;;;;;;10434995;28;19924;-68
2022/11/28 23:14:38;;;;;;;;;;;;;;;;;;10422376;28;20402;-68
2022/11/28 23:19:40;;;;;;;;;;;;;;;;;;10420179;28;19925;-67
2022/11/28 23:24:42;;;;;;;;;;;;;;;;;;10420014;28;19924;-67
2022/11/28 23:29:45;;;;;;;;;;;;;;;;;;10455958;28;20012;-68
2022/11/28 23:34:47;;;;;;;;;;;;;;;;;;10460364;28;19924;-68
2022/11/28 23:39:49;;;;;;;;;;;;;;;;;;10445464;28;19975;-67
2022/11/28 23:44:51;;;;;;;;;;;;;;;;;;10417619;28;20367;-68
2022/11/28 23:49:53;;;;;;;;;;;;;;;;;;10440203;28;19978;-67
2022/11/28 23:54:55;;;;;;;;;;;;;;;;;;10459498;28;20337;-68
2022/11/28 23:59:57;;;;;;;;;;;;;;;;;;10459805;28;19951;-68
